Providence Village's Hourly Summary for Friday, May 11, 2018
Hour Temp
(f)
RH
(%)
Solar Rad.
(MJ/m2)
Rainfall
(in)
Wind
(mph)
5/11/2018 12:00 AM 77 55 0 0 6.9
5/11/2018 1:00 AM 76 57 0 0 8.08
5/11/2018 2:00 AM 75 61 0 0 10.58
5/11/2018 3:00 AM 74 69 0 0 10.76
5/11/2018 4:00 AM 73 75 0 0 9.8
5/11/2018 5:00 AM 71 78 0 0 8.98
5/11/2018 6:00 AM 70 81 0 0 8.45
5/11/2018 7:00 AM 70 85 0.02 0 8.69
5/11/2018 8:00 AM 70 81 0.29 0 7.35
5/11/2018 9:00 AM 72 74 0.7 0 9.89
5/11/2018 10:00 AM 74 68 1.58 0 11.63
5/11/2018 11:00 AM 76 60 2.32 0 12.28
5/11/2018 12:00 PM 78 55 2.83 0 12.34
5/11/2018 1:00 PM 81 50 3.09 0 11.35
5/11/2018 2:00 PM 82 49 3.16 0 11.57
5/11/2018 3:00 PM 84 46 3.11 0 12.03
5/11/2018 4:00 PM 85 43 2.83 0 11.36
5/11/2018 5:00 PM 85 42 2.36 0 10.54
5/11/2018 6:00 PM 85 43 1.76 0 10.29
5/11/2018 7:00 PM 85 42 1.09 0 10.46
5/11/2018 8:00 PM 84 45 0.42 0 9.05
5/11/2018 9:00 PM 82 47 0.02 0 7.93
5/11/2018 10:00 PM 81 48 0 0 7.07
5/11/2018 11:00 PM 80 49 0 0 6.17
Data Summary 77 58 25.58 0.00 9.73